createdAt,value
2019-05-26T00:00:56.988Z,73.16
2019-05-26T00:06:02.004Z,74.29
2019-05-26T00:11:08.119Z,75.62
2019-05-26T00:16:13.254Z,76.85
2019-05-26T00:21:18.387Z,78.12
2019-05-26T00:26:23.509Z,79.10
2019-05-26T00:31:28.945Z,80.79
2019-05-26T00:36:34.132Z,80.98
2019-05-26T00:41:40.305Z,81.33
2019-05-26T00:46:45.605Z,81.52
2019-05-26T00:51:51.679Z,81.29
2019-05-26T00:56:56.809Z,81.69
2019-05-26T01:02:01.900Z,82.82
2019-05-26T01:07:06.937Z,83.23
2019-05-26T01:12:11.985Z,82.75
2019-05-26T01:17:17.170Z,82.99
2019-05-26T01:22:22.198Z,83.74
2019-05-26T01:27:27.264Z,83.79
2019-05-26T01:32:32.419Z,83.63
2019-05-26T01:37:37.886Z,83.36
2019-05-26T01:42:43.072Z,84.15
2019-05-26T01:47:48.539Z,84.32
2019-05-26T01:52:53.607Z,83.50
2019-05-26T01:57:58.731Z,83.87
2019-05-26T02:03:03.792Z,84.55
2019-05-26T02:08:11.767Z,85.39
2019-05-26T02:13:15.774Z,86.00
2019-05-26T02:18:20.876Z,86.75
2019-05-26T02:23:25.965Z,87.18
2019-05-26T02:28:31.376Z,87.34
2019-05-26T02:33:36.756Z,87.47
2019-05-26T02:38:59.746Z,88.46
2019-05-26T02:43:48.667Z,88.94
2019-05-26T02:48:53.727Z,89.53
2019-05-26T02:53:58.857Z,89.14
2019-05-26T02:59:03.921Z,89.08
2019-05-26T03:04:09.212Z,88.96
2019-05-26T03:09:22.648Z,90.10
2019-05-26T03:14:22.423Z,90.41
2019-05-26T03:19:28.108Z,89.98
2019-05-26T03:24:34.049Z,90.34
2019-05-26T03:29:40.133Z,90.42
2019-05-26T03:34:45.697Z,90.06
2019-05-26T03:39:51.115Z,90.03
2019-05-26T03:44:56.194Z,89.94
2019-05-26T03:50:01.481Z,90.31
2019-05-26T03:55:09.749Z,91.26
2019-05-26T04:00:15.118Z,91.41
2019-05-26T04:05:20.289Z,91.65
2019-05-26T04:10:25.287Z,91.75
2019-05-26T04:15:30.334Z,92.23
2019-05-26T04:20:35.374Z,92.36
2019-05-26T04:25:40.486Z,92.86
2019-05-26T04:30:45.610Z,92.95
2019-05-26T04:35:50.651Z,92.95
2019-05-26T04:40:56.055Z,93.15
2019-05-26T04:46:01.057Z,93.53
2019-05-26T04:51:06.089Z,93.31
2019-05-26T04:56:11.209Z,92.83
2019-05-26T05:01:16.588Z,92.54
2019-05-26T05:06:21.735Z,91.91
2019-05-26T05:11:26.876Z,91.20
2019-05-26T05:16:31.979Z,90.75
2019-05-26T05:21:37.067Z,90.06
2019-05-26T05:26:42.278Z,89.37
2019-05-26T05:31:47.364Z,88.75
2019-05-26T05:36:52.455Z,87.88
2019-05-26T05:41:57.492Z,86.88
2019-05-26T05:47:02.624Z,85.66
2019-05-26T05:52:07.971Z,84.26
2019-05-26T05:57:13.013Z,83.13
2019-05-26T06:02:18.055Z,82.25
2019-05-26T06:07:25.019Z,82.19
2019-05-26T06:12:30.209Z,80.40
2019-05-26T06:17:35.391Z,79.08
2019-05-26T06:22:40.483Z,79.68
2019-05-26T06:27:45.881Z,80.33
2019-05-26T06:32:51.016Z,79.65
2019-05-26T06:37:56.191Z,79.71
2019-05-26T06:43:01.227Z,79.65
2019-05-26T06:48:06.380Z,79.87
2019-05-26T06:53:11.507Z,79.24
2019-05-26T06:58:16.597Z,78.17
2019-05-26T07:03:21.964Z,78.44
2019-05-26T07:08:27.011Z,78.06
2019-05-26T07:13:32.455Z,76.71
2019-05-26T07:18:37.663Z,76.44
2019-05-26T07:23:42.957Z,75.18
2019-05-26T07:28:48.028Z,75.33
2019-05-26T07:33:53.073Z,73.97
2019-05-26T07:38:58.149Z,71.95
2019-05-26T07:44:03.215Z,71.33
2019-05-26T07:49:08.366Z,69.59
2019-05-26T07:54:25.041Z,70.05
2019-05-26T07:59:20.481Z,67.00
2019-05-26T08:04:25.751Z,66.60
2019-05-26T08:09:30.852Z,66.84
2019-05-26T08:14:37.025Z,65.68
2019-05-26T08:19:43.258Z,63.51
2019-05-26T08:24:48.306Z,61.22
2019-05-26T08:29:53.365Z,62.27
2019-05-26T08:34:58.565Z,61.32
2019-05-26T08:40:18.736Z,60.29
2019-05-26T08:45:24.004Z,57.08
2019-05-26T08:50:29.454Z,57.78
2019-05-26T08:55:34.551Z,57.50
2019-05-26T09:00:39.654Z,58.04
2019-05-26T09:05:44.872Z,57.03
2019-05-26T09:10:50.354Z,55.06
2019-05-26T09:15:55.445Z,54.25
2019-05-26T09:21:00.499Z,54.13
2019-05-26T09:26:07.021Z,53.45
2019-05-26T09:31:12.408Z,53.85
2019-05-26T09:36:17.596Z,53.39
2019-05-26T09:41:22.697Z,53.36
2019-05-26T09:46:27.806Z,53.72
2019-05-26T09:51:33.155Z,54.64
2019-05-26T09:56:38.333Z,53.39
2019-05-26T10:01:43.545Z,53.73
2019-05-26T10:06:49.595Z,54.51
2019-05-26T10:11:54.676Z,53.52
2019-05-26T10:16:59.735Z,53.44
2019-05-26T10:22:04.806Z,52.08
2019-05-26T10:27:10.916Z,51.60
2019-05-26T10:32:16.005Z,49.21
2019-05-26T10:37:21.495Z,48.70
2019-05-26T10:42:26.604Z,48.39
2019-05-26T10:47:31.624Z,48.37
2019-05-26T10:52:36.890Z,48.75
2019-05-26T10:57:42.004Z,49.66
2019-05-26T11:02:47.197Z,48.56
2019-05-26T11:07:52.667Z,48.31
2019-05-26T11:12:58.053Z,47.07
2019-05-26T11:18:03.124Z,45.35
2019-05-26T11:23:08.204Z,43.79
2019-05-26T11:28:13.716Z,43.69
2019-05-26T11:33:18.865Z,44.72
2019-05-26T11:38:24.040Z,44.27
2019-05-26T11:43:29.107Z,43.31
2019-05-26T11:48:34.238Z,41.56
2019-05-26T11:53:39.275Z,40.45
2019-05-26T11:58:44.438Z,40.42
2019-05-26T12:03:49.507Z,40.51
2019-05-26T12:08:54.679Z,40.38
2019-05-26T12:13:59.845Z,40.17
2019-05-26T12:19:05.374Z,40.62
2019-05-26T12:24:10.475Z,38.13
2019-05-26T12:29:15.694Z,38.13
2019-05-26T12:34:20.778Z,38.77
2019-05-26T12:39:25.884Z,38.83
2019-05-26T12:44:30.933Z,36.00
2019-05-26T12:49:35.514Z,35.97
2019-05-26T12:54:41.491Z,36.00
2019-05-26T12:59:46.950Z,36.43
2019-05-26T13:04:52.097Z,36.98
2019-05-26T13:09:57.323Z,37.94
2019-05-26T13:15:05.925Z,37.82
2019-05-26T13:20:13.425Z,38.81
2019-05-26T13:25:20.155Z,37.17
2019-05-26T13:30:28.055Z,36.20
2019-05-26T13:35:33.254Z,35.57
2019-05-26T13:40:38.555Z,35.06
2019-05-26T13:45:43.657Z,34.73
2019-05-26T13:50:48.734Z,36.61
2019-05-26T13:55:55.351Z,37.67
2019-05-26T14:01:00.372Z,37.86
2019-05-26T14:06:05.651Z,38.21
2019-05-26T14:11:10.752Z,38.22
2019-05-26T14:16:15.909Z,37.75
2019-05-26T14:21:20.952Z,36.97
2019-05-26T14:26:25.994Z,36.67
2019-05-26T14:31:31.052Z,36.70
2019-05-26T14:36:36.254Z,35.32
2019-05-26T14:41:41.337Z,35.57
2019-05-26T14:46:46.396Z,35.50
2019-05-26T14:51:51.486Z,35.13
2019-05-26T14:56:56.683Z,35.61
2019-05-26T15:02:03.673Z,35.88
2019-05-26T15:07:09.008Z,35.56
2019-05-26T15:12:14.066Z,37.02
2019-05-26T15:17:19.412Z,37.35
2019-05-26T15:22:26.435Z,36.23
2019-05-26T15:27:31.491Z,37.31
2019-05-26T15:32:36.548Z,38.68
2019-05-26T15:37:41.636Z,38.99
2019-05-26T15:42:47.052Z,38.97
2019-05-26T15:47:52.090Z,39.55
2019-05-26T15:52:57.204Z,38.88
2019-05-26T15:58:02.409Z,37.71
2019-05-26T16:03:07.523Z,38.01
2019-05-26T16:08:12.935Z,37.83
2019-05-26T16:13:18.228Z,37.59
2019-05-26T16:18:23.290Z,35.70
2019-05-26T16:23:28.574Z,35.56
2019-05-26T16:28:33.949Z,35.87
2019-05-26T16:33:39.058Z,36.83
2019-05-26T16:38:44.401Z,37.38
2019-05-26T16:43:49.464Z,37.25
2019-05-26T16:48:55.048Z,35.80
2019-05-26T16:54:00.323Z,34.88
2019-05-26T16:59:05.976Z,36.20
2019-05-26T17:04:11.116Z,36.81
2019-05-26T17:09:16.314Z,36.93
2019-05-26T17:14:21.832Z,37.66
2019-05-26T17:19:27.034Z,37.82
2019-05-26T17:24:33.589Z,38.12
2019-05-26T17:29:38.913Z,38.48
2019-05-26T17:34:44.024Z,38.88
2019-05-26T17:39:49.590Z,38.88
2019-05-26T17:44:54.757Z,39.85
2019-05-26T17:50:00.309Z,39.97
2019-05-26T17:55:05.954Z,39.94
2019-05-26T18:00:12.028Z,40.74
2019-05-26T18:05:17.427Z,39.90
2019-05-26T18:10:22.604Z,40.48
2019-05-26T18:15:27.751Z,40.32
2019-05-26T18:20:32.771Z,40.46
2019-05-26T18:25:37.794Z,40.70
2019-05-26T18:30:43.160Z,40.76
2019-05-26T18:35:48.322Z,41.13
2019-05-26T18:40:53.403Z,41.33
2019-05-26T18:45:58.710Z,41.61
2019-05-26T18:51:04.352Z,42.22
2019-05-26T18:56:09.402Z,42.44
2019-05-26T19:01:15.044Z,42.91
2019-05-26T19:06:20.390Z,43.72
2019-05-26T19:11:25.451Z,44.53
2019-05-26T19:16:30.552Z,45.00
2019-05-26T19:21:35.698Z,45.61
2019-05-26T19:26:40.777Z,46.29
2019-05-26T19:31:46.068Z,46.64
2019-05-26T19:36:51.152Z,47.16
2019-05-26T19:41:56.612Z,47.47
2019-05-26T19:47:02.640Z,48.11
2019-05-26T19:52:07.725Z,48.76
2019-05-26T19:57:14.319Z,48.97
2019-05-26T20:02:19.504Z,49.74
2019-05-26T20:07:24.589Z,50.11
2019-05-26T20:12:29.685Z,50.81
2019-05-26T20:17:34.690Z,51.38
2019-05-26T20:22:39.787Z,51.69
2019-05-26T20:27:44.850Z,52.37
2019-05-26T20:32:49.903Z,52.86
2019-05-26T20:37:55.034Z,53.59
2019-05-26T20:43:00.113Z,54.11
2019-05-26T20:48:05.468Z,54.58
2019-05-26T20:53:10.867Z,55.08
2019-05-26T20:58:16.410Z,55.86
2019-05-26T21:03:21.551Z,56.36
2019-05-26T21:08:26.716Z,57.13
2019-05-26T21:13:31.740Z,57.82
2019-05-26T21:18:36.796Z,58.12
2019-05-26T21:23:43.020Z,58.28
2019-05-26T21:28:48.096Z,58.70
2019-05-26T21:33:53.561Z,58.94
2019-05-26T21:38:58.619Z,59.22
2019-05-26T21:44:03.628Z,59.46
2019-05-26T21:49:09.101Z,59.81
2019-05-26T21:54:14.157Z,60.03
2019-05-26T21:59:19.207Z,61.04
2019-05-26T22:04:24.363Z,61.50
2019-05-26T22:09:31.536Z,61.92
2019-05-26T22:14:36.566Z,62.43
2019-05-26T22:19:42.574Z,62.70
2019-05-26T22:24:47.695Z,63.04
2019-05-26T22:29:52.735Z,63.50
2019-05-26T22:34:57.841Z,63.79
2019-05-26T22:40:02.897Z,63.98
2019-05-26T22:45:09.772Z,64.25
2019-05-26T22:50:17.826Z,64.24
2019-05-26T22:55:22.802Z,64.33
2019-05-26T23:00:28.093Z,64.62
2019-05-26T23:05:33.189Z,64.52
2019-05-26T23:10:38.341Z,64.53
2019-05-26T23:15:43.407Z,64.62
2019-05-26T23:20:48.424Z,65.28
2019-05-26T23:25:53.456Z,65.83
2019-05-26T23:30:58.576Z,66.13
2019-05-26T23:36:03.574Z,66.30
2019-05-26T23:41:08.974Z,66.27
2019-05-26T23:46:14.307Z,66.74
2019-05-26T23:51:19.404Z,67.08
2019-05-26T23:56:24.505Z,67.15
